Time;durP1;ratioP1;P1;durP2;ratioP2;P2;SDS_P1;SDS_P2;PMS_P1;PMS_P2;Temp;Humidity;BMP_temperature;BMP_pressure;BME280_temperature;BME280_humidity;BME280_pressure;Samples;Min_cycle;Max_cycle;Signal;HPM_P1;HPM_P2
2022/01/04 00:00:17;;;;;;;8.15;5.95;;;11.50;81.60;;;;;;4997469;28;20085;-86
2022/01/04 00:02:43;;;;;;;10.55;7.63;;;11.50;81.70;;;;;;4998909;28;20022;-84
2022/01/04 00:05:10;;;;;;;6.85;5.07;;;11.50;81.60;;;;;;4996936;28;20031;-85
2022/01/04 00:07:36;;;;;;;6.85;5.53;;;11.50;81.60;;;;;;4998279;28;20049;-86
2022/01/04 00:10:03;;;;;;;8.68;6.30;;;11.40;81.50;;;;;;5001485;28;20065;-86
2022/01/04 00:15:12;;;;;;;9.82;6.53;;;11.50;81.60;;;;;;4992820;28;20052;-86
2022/01/04 00:17:38;;;;;;;8.30;6.47;;;11.50;81.50;;;;;;4991533;28;20026;-85
2022/01/04 00:20:06;;;;;;;9.77;6.35;;;11.50;81.40;;;;;;4997185;28;20029;-86
2022/01/04 00:22:32;;;;;;;8.52;6.53;;;11.50;81.30;;;;;;4997359;28;20045;-86
2022/01/04 00:24:57;;;;;;;10.18;8.15;;;11.50;81.30;;;;;;5004535;28;20392;-86
2022/01/04 00:27:23;;;;;;;7.57;5.97;;;11.50;81.30;;;;;;4995954;28;20034;-86
2022/01/04 00:29:49;;;;;;;7.97;6.47;;;11.50;81.40;;;;;;5003435;28;20049;-87
2022/01/04 00:32:15;;;;;;;7.13;5.68;;;11.50;81.40;;;;;;5003598;28;20447;-87
2022/01/04 00:34:41;;;;;;;7.18;5.50;;;11.50;81.40;;;;;;5007323;28;20045;-89
2022/01/04 00:37:07;;;;;;;8.98;6.70;;;11.50;81.40;;;;;;4993235;28;20105;-87
2022/01/04 00:39:33;;;;;;;6.82;4.93;;;11.50;81.30;;;;;;4995440;28;20121;-88
2022/01/04 00:41:59;;;;;;;7.10;4.75;;;11.50;81.40;;;;;;4998984;28;20479;-89
2022/01/04 00:44:25;;;;;;;9.27;5.15;;;11.50;81.40;;;;;;5000380;28;20026;-90
2022/01/04 00:46:51;;;;;;;6.97;5.15;;;11.50;81.30;;;;;;5002598;28;20091;-89
2022/01/04 00:49:17;;;;;;;5.85;4.68;;;11.50;81.30;;;;;;5000926;28;20034;-89
2022/01/04 00:51:49;;;;;;;5.38;4.20;;;11.40;81.20;;;;;;5003239;28;20022;-89
2022/01/04 00:54:16;;;;;;;5.90;4.75;;;11.40;81.30;;;;;;5004873;28;20066;-89
2022/01/04 00:56:43;;;;;;;8.73;5.53;;;11.50;81.40;;;;;;4999836;28;20106;-89
2022/01/04 00:59:09;;;;;;;5.50;4.53;;;11.50;81.40;;;;;;4997903;28;20038;-86
2022/01/04 01:01:34;;;;;;;6.00;4.65;;;11.50;81.20;;;;;;5003397;28;20037;-86
2022/01/04 01:04:00;;;;;;;8.02;6.78;;;11.50;81.20;;;;;;4995021;28;20432;-87
2022/01/04 01:06:26;;;;;;;7.50;5.45;;;11.50;81.10;;;;;;4982762;28;20500;-89
2022/01/04 01:08:51;;;;;;;8.05;5.60;;;11.40;81.20;;;;;;4990115;28;20459;-89
2022/01/04 01:11:18;;;;;;;7.90;6.07;;;11.40;81.30;;;;;;4987695;28;20278;-89
2022/01/04 01:13:43;;;;;;;7.60;5.32;;;11.40;81.40;;;;;;4988754;28;20018;-88
2022/01/04 01:16:09;;;;;;;6.70;5.45;;;11.30;81.40;;;;;;4985022;28;20464;-89
2022/01/04 01:18:36;;;;;;;7.82;5.40;;;11.30;81.50;;;;;;4982320;28;20034;-89
2022/01/04 01:21:03;;;;;;;7.07;5.05;;;11.30;81.60;;;;;;4987388;28;20058;-87
2022/01/04 01:23:29;;;;;;;7.85;5.28;;;11.40;81.60;;;;;;4983902;28;20465;-88
2022/01/04 01:25:55;;;;;;;7.03;5.00;;;11.40;81.50;;;;;;4989114;28;20072;-87
2022/01/04 01:28:22;;;;;;;6.28;4.70;;;11.50;81.50;;;;;;4985152;28;20030;-87
2022/01/04 01:30:48;;;;;;;7.65;5.15;;;11.40;81.30;;;;;;4985576;28;20022;-87
2022/01/04 01:33:14;;;;;;;7.35;5.25;;;11.50;81.40;;;;;;4985333;28;20030;-88
2022/01/04 01:35:40;;;;;;;8.88;6.72;;;11.50;81.30;;;;;;4986270;28;20050;-88
2022/01/04 01:38:08;;;;;;;7.82;6.85;;;11.40;81.20;;;;;;4985311;28;20032;-87
2022/01/04 01:40:35;;;;;;;6.70;5.07;;;11.40;81.20;;;;;;4987229;28;20041;-88
2022/01/04 01:43:00;;;;;;;6.07;4.68;;;11.40;81.40;;;;;;4986595;28;20105;-87
2022/01/04 01:45:26;;;;;;;8.50;6.28;;;11.50;81.40;;;;;;4983985;28;20113;-86
2022/01/04 01:47:52;;;;;;;10.20;6.28;;;11.50;81.20;;;;;;4987705;28;20021;-84
2022/01/04 01:50:18;;;;;;;9.90;6.97;;;11.50;81.00;;;;;;4982463;28;20042;-89
2022/01/04 01:52:46;;;;;;;8.02;6.25;;;11.40;81.00;;;;;;4984917;28;20118;-89
2022/01/04 01:55:12;;;;;;;7.55;6.47;;;11.30;81.20;;;;;;4983467;28;20400;-88
2022/01/04 01:57:38;;;;;;;8.02;6.00;;;11.30;81.20;;;;;;4988039;28;20036;-88
2022/01/04 02:00:08;;;;;;;10.57;7.85;;;11.30;81.40;;;;;;4987620;28;20026;-88
2022/01/04 02:02:34;;;;;;;7.45;5.68;;;11.30;81.30;;;;;;4986506;28;20034;-87
2022/01/04 02:05:00;;;;;;;9.23;7.90;;;11.30;81.50;;;;;;4984553;28;20389;-87
2022/01/04 02:07:26;;;;;;;7.97;6.07;;;11.30;81.50;;;;;;4984046;28;20125;-87
2022/01/04 02:10:25;;;;;;;7.03;6.07;;;11.30;81.50;;;;;;5002527;28;20041;-89
2022/01/04 02:12:46;;;;;;;10.52;7.32;;;11.20;81.40;;;;;;4984894;28;20037;-88
2022/01/04 02:15:15;;;;;;;11.27;8.75;;;11.20;81.50;;;;;;4986902;28;20424;-88
2022/01/04 02:17:41;;;;;;;8.23;6.30;;;11.20;81.60;;;;;;4992434;28;20037;-87
2022/01/04 02:20:07;;;;;;;9.68;8.07;;;11.10;81.60;;;;;;4991122;28;20018;-87
2022/01/04 02:22:33;;;;;;;9.95;7.20;;;11.10;81.70;;;;;;5002516;28;20026;-86
2022/01/04 02:24:59;;;;;;;7.45;6.57;;;11.10;81.80;;;;;;4998594;28;20031;-89
2022/01/04 02:27:25;;;;;;;9.23;7.03;;;11.10;81.90;;;;;;4998137;28;20034;-87
2022/01/04 02:29:51;;;;;;;7.25;6.03;;;11.10;81.80;;;;;;4997101;28;20531;-87
2022/01/04 02:32:16;;;;;;;9.90;7.18;;;11.10;81.70;;;;;;5002566;28;20396;-87
2022/01/04 02:34:50;;;;;;;8.13;6.60;;;11.10;81.70;;;;;;4993892;28;20023;-87
2022/01/04 02:37:20;;;;;;;6.10;5.35;;;11.10;81.70;;;;;;4982111;28;20069;-87
2022/01/04 02:39:46;;;;;;;9.00;6.97;;;11.20;81.70;;;;;;4986259;28;20045;-88
2022/01/04 02:42:12;;;;;;;7.10;6.40;;;11.20;81.70;;;;;;4981919;28;20457;-85
2022/01/04 02:44:37;;;;;;;8.45;6.20;;;11.20;81.60;;;;;;4985774;28;20036;-86
2022/01/04 02:47:03;;;;;;;9.25;7.38;;;11.10;81.60;;;;;;4983847;28;20105;-85
2022/01/04 02:49:29;;;;;;;10.43;8.07;;;11.10;81.80;;;;;;4983940;28;20057;-85
2022/01/04 02:51:54;;;;;;;8.63;6.72;;;11.10;81.80;;;;;;4986987;28;20026;-87
2022/01/04 02:54:20;;;;;;;8.82;6.82;;;11.10;81.80;;;;;;4983953;28;20031;-86
2022/01/04 02:56:45;;;;;;;6.88;5.63;;;11.10;81.90;;;;;;4986051;28;20030;-86
2022/01/04 02:59:11;;;;;;;9.27;5.95;;;11.10;81.90;;;;;;4995158;28;20030;-86
2022/01/04 03:01:36;;;;;;;6.95;5.60;;;11.10;81.80;;;;;;4995226;28;20026;-88
2022/01/04 03:04:02;;;;;;;7.18;5.55;;;11.00;81.80;;;;;;5001358;28;20080;-88
2022/01/04 03:06:28;;;;;;;6.32;5.68;;;11.10;81.80;;;;;;4993213;28;20064;-88
2022/01/04 03:08:54;;;;;;;7.20;5.47;;;11.20;81.80;;;;;;5002177;28;20125;-89
2022/01/04 03:11:20;;;;;;;9.07;7.15;;;11.20;81.70;;;;;;4996855;28;20146;-88
2022/01/04 03:13:45;;;;;;;9.93;7.47;;;11.30;81.50;;;;;;5000879;28;20130;-88
2022/01/04 03:16:11;;;;;;;7.82;7.00;;;11.20;81.30;;;;;;5002134;28;20033;-86
2022/01/04 03:18:47;;;;;;;6.30;5.45;;;11.20;81.30;;;;;;4983899;28;20035;-86
2022/01/04 03:21:13;;;;;;;7.18;4.68;;;11.20;81.40;;;;;;4991783;28;20022;-87
2022/01/04 03:23:39;;;;;;;6.50;5.00;;;11.20;81.30;;;;;;4997396;28;20041;-88
2022/01/04 03:26:04;;;;;;;9.38;6.60;;;11.30;81.30;;;;;;4996095;28;20049;-88
2022/01/04 03:28:30;;;;;;;7.22;6.40;;;11.40;81.20;;;;;;4996825;28;20499;-85
2022/01/04 03:30:55;;;;;;;6.32;5.00;;;11.30;81.00;;;;;;4997935;28;20026;-84
2022/01/04 03:33:21;;;;;;;6.25;4.68;;;11.30;81.00;;;;;;4993560;28;20021;-86
2022/01/04 03:35:46;;;;;;;5.28;4.22;;;11.40;81.00;;;;;;4998045;28;20034;-83
2022/01/04 03:38:12;;;;;;;6.15;4.95;;;11.40;81.00;;;;;;4995704;28;20409;-83
2022/01/04 03:40:37;;;;;;;5.63;4.22;;;11.40;81.00;;;;;;5000013;28;20041;-83
2022/01/04 03:43:03;;;;;;;6.20;4.72;;;11.50;81.00;;;;;;4993109;28;20049;-84
2022/01/04 03:45:28;;;;;;;5.88;4.55;;;11.50;80.80;;;;;;4988952;28;20421;-84
2022/01/04 03:47:53;;;;;;;6.38;4.80;;;11.50;80.70;;;;;;5001583;28;20026;-83
2022/01/04 03:50:19;;;;;;;7.32;4.80;;;11.50;80.60;;;;;;5001297;28;20124;-85
2022/01/04 03:52:44;;;;;;;7.80;5.57;;;11.50;80.70;;;;;;4992924;28;20023;-84
2022/01/04 03:55:10;;;;;;;6.78;5.38;;;11.50;80.60;;;;;;4999811;28;20488;-84
2022/01/04 03:57:36;;;;;;;5.93;4.57;;;11.60;80.60;;;;;;4992462;28;20018;-84
2022/01/04 04:00:05;;;;;;;6.50;5.32;;;11.60;80.50;;;;;;5004680;28;20042;-84
2022/01/04 04:02:30;;;;;;;6.85;5.32;;;11.60;80.40;;;;;;4996590;28;20100;-84
2022/01/04 04:04:56;;;;;;;4.97;4.43;;;11.60;80.30;;;;;;5004504;28;20017;-84
2022/01/04 04:07:21;;;;;;;5.70;4.13;;;11.60;80.30;;;;;;5001587;28;20396;-84
2022/01/04 04:09:47;;;;;;;8.00;6.65;;;11.70;80.40;;;;;;5000080;28;20073;-84
2022/01/04 04:12:14;;;;;;;7.68;6.25;;;11.60;80.00;;;;;;5005699;28;20423;-85
2022/01/04 04:14:41;;;;;;;7.75;5.30;;;11.50;80.10;;;;;;5002211;28;20545;-83
2022/01/04 04:17:06;;;;;;;6.47;5.15;;;11.50;80.20;;;;;;4985020;28;20034;-83
2022/01/04 04:19:32;;;;;;;5.70;4.20;;;11.50;80.30;;;;;;4998698;28;20030;-83
2022/01/04 04:21:58;;;;;;;7.07;5.45;;;11.60;80.40;;;;;;4999946;28;20026;-83
2022/01/04 04:24:23;;;;;;;9.50;6.60;;;11.50;80.20;;;;;;4995112;28;20026;-83
2022/01/04 04:26:49;;;;;;;8.25;5.95;;;11.50;80.30;;;;;;5001226;28;20030;-84
2022/01/04 04:29:14;;;;;;;8.05;5.50;;;11.40;80.30;;;;;;4999919;28;20030;-84
2022/01/04 04:31:40;;;;;;;7.30;5.93;;;11.40;80.30;;;;;;5002287;28;20033;-84
2022/01/04 04:34:05;;;;;;;7.22;5.50;;;11.40;80.30;;;;;;4999111;28;20063;-87
2022/01/04 04:36:31;;;;;;;9.43;8.35;;;11.40;80.30;;;;;;5004186;28;20034;-89
2022/01/04 04:39:00;;;;;;;10.65;7.85;;;11.30;80.00;;;;;;4996020;28;20061;-87
2022/01/04 04:41:26;;;;;;;9.50;7.70;;;11.20;80.10;;;;;;5004112;28;20029;-86
2022/01/04 04:43:54;;;;;;;13.48;10.52;;;11.10;80.40;;;;;;4998521;28;20637;-87
2022/01/04 04:46:23;;;;;;;8.82;7.35;;;11.10;80.40;;;;;;5001800;28;20022;-86
2022/01/04 04:48:48;;;;;;;7.53;6.50;;;10.90;80.50;;;;;;4998910;28;20089;-87
2022/01/04 04:51:14;;;;;;;7.85;6.78;;;10.90;80.80;;;;;;5002243;28;20037;-87
2022/01/04 04:53:39;;;;;;;7.53;5.90;;;11.00;80.80;;;;;;5000071;28;20042;-86
2022/01/04 04:56:05;;;;;;;7.75;6.57;;;11.00;80.80;;;;;;5002936;28;20026;-88
2022/01/04 04:58:31;;;;;;;9.38;6.90;;;11.00;80.70;;;;;;4997305;28;20042;-88
2022/01/04 05:00:56;;;;;;;8.50;7.15;;;11.10;80.80;;;;;;5004167;28;20053;-85
2022/01/04 05:03:22;;;;;;;8.00;6.50;;;11.10;80.70;;;;;;5000118;28;20030;-85
2022/01/04 05:05:48;;;;;;;7.85;6.22;;;11.00;80.60;;;;;;5000504;28;20034;-85
2022/01/04 05:08:13;;;;;;;6.95;6.18;;;11.00;80.80;;;;;;5000339;28;20081;-85
2022/01/04 05:10:39;;;;;;;8.27;6.63;;;11.00;80.80;;;;;;5000633;28;20030;-86
2022/01/04 05:13:04;;;;;;;12.52;8.98;;;11.00;80.80;;;;;;5004282;28;20133;-85
2022/01/04 05:15:30;;;;;;;8.85;6.32;;;11.10;80.80;;;;;;5001060;28;20030;-85
2022/01/04 05:17:55;;;;;;;9.85;7.75;;;11.10;80.80;;;;;;4978499;28;20034;-87
2022/01/04 05:20:21;;;;;;;8.85;6.63;;;11.10;80.80;;;;;;4989605;28;20041;-87
2022/01/04 05:22:46;;;;;;;9.38;6.50;;;11.10;80.70;;;;;;5000018;28;20253;-88
2022/01/04 05:25:12;;;;;;;9.55;7.57;;;11.10;80.60;;;;;;4996928;28;20030;-88
2022/01/04 05:27:37;;;;;;;8.18;6.93;;;11.20;80.50;;;;;;4996187;28;20029;-89
2022/01/04 05:30:04;;;;;;;8.15;6.22;;;11.10;80.40;;;;;;5000732;28;20038;-90
2022/01/04 05:32:30;;;;;;;9.75;7.38;;;11.10;80.40;;;;;;5000389;28;20037;-86
2022/01/04 05:34:55;;;;;;;8.63;7.70;;;11.00;80.40;;;;;;4995081;28;20030;-85
2022/01/04 05:37:21;;;;;;;8.65;7.00;;;10.90;80.50;;;;;;4998516;28;20041;-86
2022/01/04 05:39:46;;;;;;;10.00;7.82;;;11.00;80.70;;;;;;5002666;28;20030;-85
2022/01/04 05:42:12;;;;;;;10.43;8.25;;;11.00;80.80;;;;;;4998701;28;20061;-89
2022/01/04 05:44:37;;;;;;;9.43;6.50;;;11.10;80.60;;;;;;4998498;28;20421;-85
2022/01/04 05:47:05;;;;;;;9.15;6.57;;;11.00;80.60;;;;;;4997485;28;20021;-85
2022/01/04 05:49:30;;;;;;;8.57;6.97;;;11.10;80.50;;;;;;5006760;28;20422;-84
2022/01/04 05:51:56;;;;;;;6.82;5.68;;;11.10;80.50;;;;;;4999822;28;20022;-86
2022/01/04 05:54:22;;;;;;;8.48;6.63;;;11.10;80.60;;;;;;5000029;28;20058;-87
2022/01/04 05:56:47;;;;;;;8.15;5.95;;;11.10;80.40;;;;;;4999192;28;20030;-87
2022/01/04 05:59:13;;;;;;;7.65;5.85;;;11.20;80.50;;;;;;5002523;28;20030;-87
2022/01/04 06:01:38;;;;;;;5.80;5.10;;;11.20;80.30;;;;;;4999056;28;20117;-85
2022/01/04 06:04:04;;;;;;;7.57;6.40;;;11.30;80.40;;;;;;4998488;28;20032;-87
2022/01/04 06:06:29;;;;;;;9.60;7.00;;;11.30;80.30;;;;;;4999351;28;20029;-86
2022/01/04 06:08:56;;;;;;;8.48;6.68;;;11.20;80.20;;;;;;4998766;28;20060;-85
2022/01/04 06:16:50;;;;;;;8.65;7.50;;;11.30;80.20;;;;;;4994487;28;20514;-86
2022/01/04 06:19:16;;;;;;;7.45;5.55;;;11.20;80.10;;;;;;4979174;28;20027;-86
2022/01/04 06:21:41;;;;;;;8.70;6.20;;;11.20;80.30;;;;;;4996489;28;20031;-87
2022/01/04 06:24:07;;;;;;;9.75;7.80;;;11.20;80.20;;;;;;4996034;28;20465;-87
2022/01/04 06:26:33;;;;;;;8.57;6.40;;;11.20;80.00;;;;;;4999019;28;20105;-87
2022/01/04 06:28:58;;;;;;;7.00;6.30;;;11.20;80.20;;;;;;5001537;28;20080;-85
2022/01/04 06:31:27;;;;;;;10.35;7.75;;;11.20;80.20;;;;;;4997567;28;20076;-84
2022/01/04 06:33:53;;;;;;;8.52;6.63;;;11.10;80.20;;;;;;5003127;28;20022;-84
2022/01/04 06:36:18;;;;;;;8.73;6.25;;;11.20;80.40;;;;;;4997209;28;20389;-84
2022/01/04 06:38:44;;;;;;;7.65;6.15;;;11.20;80.30;;;;;;5003667;28;20030;-84
2022/01/04 06:41:09;;;;;;;9.02;7.13;;;11.30;80.40;;;;;;4996413;28;20073;-84
2022/01/04 06:43:35;;;;;;;11.18;7.90;;;11.20;80.10;;;;;;5001845;28;20105;-84
2022/01/04 06:46:00;;;;;;;7.60;5.10;;;11.20;80.70;;;;;;4999537;28;20049;-85
2022/01/04 06:48:26;;;;;;;8.32;6.50;;;11.20;80.20;;;;;;5002676;28;20673;-86
2022/01/04 06:50:51;;;;;;;10.07;8.07;;;11.20;80.10;;;;;;4997153;28;20087;-86
2022/01/04 06:53:17;;;;;;;8.73;6.55;;;11.10;80.00;;;;;;4997702;28;20323;-84
2022/01/04 06:55:42;;;;;;;6.68;5.55;;;11.10;80.30;;;;;;4995969;28;20120;-85
2022/01/04 06:58:08;;;;;;;9.23;7.43;;;11.10;80.30;;;;;;4998919;28;20378;-84
2022/01/04 07:00:34;;;;;;;12.10;9.48;;;11.10;80.20;;;;;;4999178;28;20033;-84
2022/01/04 07:02:59;;;;;;;11.23;8.45;;;10.90;80.00;;;;;;4998971;28;20041;-84
2022/01/04 07:05:25;;;;;;;10.20;7.20;;;10.90;80.40;;;;;;4994615;28;20026;-84
2022/01/04 07:07:51;;;;;;;8.23;6.85;;;10.90;80.50;;;;;;5005223;28;20125;-84
2022/01/04 07:10:17;;;;;;;9.05;7.22;;;10.90;80.50;;;;;;5000647;28;20469;-86
2022/01/04 07:12:42;;;;;;;9.63;7.63;;;10.90;80.50;;;;;;5004600;28;20031;-86
2022/01/04 07:15:08;;;;;;;8.57;6.88;;;10.90;80.60;;;;;;5005213;28;20042;-85
2022/01/04 07:17:38;;;;;;;11.02;8.70;;;10.90;80.50;;;;;;4983044;28;20026;-85
2022/01/04 07:20:04;;;;;;;9.73;7.43;;;10.90;80.50;;;;;;4990779;28;20108;-85
2022/01/04 07:22:29;;;;;;;10.25;8.00;;;10.90;80.50;;;;;;4994978;28;20088;-84
2022/01/04 07:24:55;;;;;;;7.40;5.93;;;10.90;80.60;;;;;;4997478;28;20034;-85
2022/01/04 07:27:20;;;;;;;9.07;6.28;;;10.90;80.60;;;;;;4991018;28;20030;-86
2022/01/04 07:29:46;;;;;;;13.57;10.57;;;11.00;80.60;;;;;;4992613;28;20042;-86
2022/01/04 07:32:11;;;;;;;11.20;8.98;;;10.90;80.40;;;;;;4990828;28;20512;-86
2022/01/04 07:34:37;;;;;;;11.30;8.50;;;10.80;80.60;;;;;;5003485;28;20151;-86
2022/01/04 07:37:03;;;;;;;9.95;7.75;;;10.80;81.30;;;;;;4994034;28;20026;-83
2022/01/04 07:39:28;;;;;;;10.57;8.63;;;10.80;80.80;;;;;;5000899;28;20037;-84
2022/01/04 07:41:55;;;;;;;12.05;9.02;;;10.80;80.80;;;;;;5001991;28;20021;-85
2022/01/04 07:44:20;;;;;;;12.25;9.63;;;10.70;80.60;;;;;;5001779;28;20041;-86
2022/01/04 07:46:46;;;;;;;10.32;7.95;;;10.70;81.00;;;;;;4999246;28;20366;-85
2022/01/04 07:49:11;;;;;;;10.52;8.07;;;10.80;81.10;;;;;;5001888;28;20381;-85
2022/01/04 07:51:37;;;;;;;7.63;6.18;;;10.80;81.10;;;;;;4998644;28;20019;-86
2022/01/04 07:54:02;;;;;;;11.20;8.57;;;10.90;81.10;;;;;;5001873;28;20089;-89
2022/01/04 07:56:28;;;;;;;10.75;8.45;;;10.90;80.80;;;;;;4993191;28;20027;-89
2022/01/04 07:59:00;;;;;;;9.35;7.55;;;10.90;80.80;;;;;;4999455;28;20040;-87
2022/01/04 08:01:27;;;;;;;12.13;8.90;;;10.90;80.90;;;;;;5006699;28;20026;-87
2022/01/04 08:03:52;;;;;;;9.55;7.35;;;10.90;80.90;;;;;;4994522;28;20060;-87
2022/01/04 08:06:18;;;;;;;10.85;8.07;;;10.90;81.00;;;;;;4993776;28;20046;-87
2022/01/04 08:08:43;;;;;;;11.63;8.10;;;10.90;80.90;;;;;;4991312;28;20026;-86
2022/01/04 08:11:09;;;;;;;11.80;9.45;;;10.90;80.90;;;;;;5003203;28;20037;-86
2022/01/04 08:13:35;;;;;;;11.70;9.00;;;10.90;80.80;;;;;;4994658;28;20381;-86
2022/01/04 08:16:00;;;;;;;9.77;6.57;;;10.80;80.90;;;;;;4997952;28;20027;-86
2022/01/04 08:18:26;;;;;;;8.13;5.95;;;10.80;81.00;;;;;;4985823;28;20023;-85
2022/01/04 08:20:56;;;;;;;11.45;8.60;;;10.80;81.00;;;;;;5007004;28;20424;-87
2022/01/04 08:23:22;;;;;;;9.52;6.63;;;10.80;81.00;;;;;;4997761;28;20433;-82
2022/01/04 08:25:48;;;;;;;14.50;10.90;;;10.80;81.00;;;;;;4990967;28;20030;-83
2022/01/04 08:28:13;;;;;;;13.77;10.57;;;10.70;81.10;;;;;;4986321;28;20049;-83
2022/01/04 08:30:41;;;;;;;13.65;10.25;;;10.60;81.20;;;;;;4997347;28;20504;-84
2022/01/04 08:33:07;;;;;;;14.52;10.35;;;10.40;81.40;;;;;;4991393;28;20026;-84
2022/01/04 08:35:32;;;;;;;13.23;10.15;;;10.30;81.70;;;;;;4994190;28;20052;-84
2022/01/04 08:37:58;;;;;;;9.55;7.47;;;10.30;82.00;;;;;;4996834;28;20077;-84
2022/01/04 08:40:23;;;;;;;13.48;9.35;;;10.30;82.10;;;;;;4994169;28;20025;-83
2022/01/04 08:42:49;;;;;;;13.00;9.32;;;10.30;82.10;;;;;;4986656;28;20045;-83
2022/01/04 08:45:17;;;;;;;14.95;10.88;;;10.30;82.20;;;;;;4993313;28;20026;-83
2022/01/04 08:47:43;;;;;;;16.58;12.05;;;10.20;82.30;;;;;;4990776;28;20041;-84
2022/01/04 08:50:11;;;;;;;15.65;11.80;;;10.20;82.40;;;;;;4993284;28;20034;-83
2022/01/04 08:52:37;;;;;;;14.18;10.68;;;10.10;82.50;;;;;;4999356;28;20117;-85
2022/01/04 08:55:03;;;;;;;12.88;9.52;;;10.10;82.70;;;;;;4990424;28;20068;-85
2022/01/04 08:57:29;;;;;;;14.25;10.10;;;10.10;82.80;;;;;;4996417;28;20022;-83
2022/01/04 08:59:57;;;;;;;17.25;13.35;;;10.00;82.90;;;;;;4983105;28;20026;-82
2022/01/04 09:02:22;;;;;;;16.35;11.85;;;10.00;83.20;;;;;;4992190;28;20029;-84
2022/01/04 09:04:48;;;;;;;17.70;12.50;;;10.00;83.30;;;;;;4990658;28;20034;-83
2022/01/04 09:07:15;;;;;;;13.77;10.07;;;10.00;83.40;;;;;;4990177;28;20030;-84
2022/01/04 09:09:40;;;;;;;16.83;12.13;;;10.10;83.30;;;;;;5000572;28;20042;-84
2022/01/04 09:12:06;;;;;;;13.73;9.15;;;10.10;83.30;;;;;;4991697;28;20548;-83
2022/01/04 09:14:53;;;;;;;17.70;11.63;;;10.10;83.20;;;;;;4990800;28;20082;-83
2022/01/04 09:20:14;;;;;;;16.15;11.68;;;10.10;83.40;;;;;;4967267;28;20041;-84
2022/01/04 09:22:41;;;;;;;20.70;15.13;;;10.10;83.40;;;;;;4991814;28;20026;-84
2022/01/04 09:25:08;;;;;;;17.30;12.70;;;10.00;83.40;;;;;;4988000;28;20037;-85
2022/01/04 09:27:33;;;;;;;14.13;10.15;;;10.00;83.70;;;;;;4995555;28;20034;-85
2022/01/04 09:30:03;;;;;;;12.13;8.35;;;10.00;83.90;;;;;;4988331;28;20034;-83
2022/01/04 09:32:33;;;;;;;15.07;10.27;;;10.00;84.00;;;;;;4989197;28;20026;-86
2022/01/04 09:35:00;;;;;;;17.17;12.27;;;10.00;84.70;;;;;;4989245;28;20033;-83
2022/01/04 09:37:26;;;;;;;13.20;8.63;;;10.00;84.20;;;;;;4980635;28;20027;-83
2022/01/04 09:39:52;;;;;;;12.80;9.15;;;10.00;84.10;;;;;;4991386;28;20718;-84
2022/01/04 09:42:20;;;;;;;10.15;7.38;;;10.00;84.20;;;;;;5000123;28;22830;-85
2022/01/04 09:44:47;;;;;;;12.57;8.27;;;10.10;84.20;;;;;;4987953;28;20183;-85
2022/01/04 09:47:13;;;;;;;13.15;10.00;;;10.10;84.10;;;;;;4991013;28;20416;-84
2022/01/04 09:49:38;;;;;;;16.83;12.30;;;10.00;84.10;;;;;;4987322;28;20042;-84
2022/01/04 09:52:05;;;;;;;15.55;10.70;;;10.10;84.30;;;;;;4978824;28;20056;-81
2022/01/04 09:54:33;;;;;;;15.57;10.73;;;10.00;84.30;;;;;;4980996;28;20034;-82
2022/01/04 09:56:59;;;;;;;14.52;9.45;;;10.10;84.30;;;;;;4983201;28;20031;-82
2022/01/04 09:59:24;;;;;;;11.73;8.77;;;10.00;84.30;;;;;;4987532;28;20053;-82
2022/01/04 10:01:55;;;;;;;12.65;9.23;;;10.10;84.30;;;;;;4986798;28;20081;-82
2022/01/04 10:04:24;;;;;;;11.40;8.50;;;10.10;84.20;;;;;;4984835;28;20042;-82
2022/01/04 10:07:05;;;;;;;13.02;7.97;;;10.10;84.20;;;;;;4985448;28;20104;-82
2022/01/04 10:09:44;;;;;;;11.27;7.93;;;10.00;84.10;;;;;;4988155;28;20046;-82
2022/01/04 10:12:11;;;;;;;10.63;6.50;;;10.00;84.10;;;;;;4984706;28;20509;-82
2022/01/04 10:14:43;;;;;;;7.70;5.65;;;10.00;84.00;;;;;;4983115;28;20037;-82
2022/01/04 10:17:20;;;;;;;7.10;5.40;;;10.00;83.90;;;;;;4987229;28;20034;-82
2022/01/04 10:19:48;;;;;;;6.45;4.90;;;10.00;83.70;;;;;;4984998;28;20397;-82
2022/01/04 10:22:29;;;;;;;7.07;4.45;;;10.00;83.70;;;;;;4990168;28;20084;-83
2022/01/04 10:25:01;;;;;;;6.15;4.38;;;10.00;83.50;;;;;;4984779;28;20201;-82
2022/01/04 10:27:42;;;;;;;5.32;4.30;;;9.90;83.50;;;;;;4988482;28;20105;-82
2022/01/04 10:30:16;;;;;;;5.18;4.03;;;9.90;83.30;;;;;;4979904;28;20462;-84
2022/01/04 10:32:58;;;;;;;5.38;3.15;;;9.90;83.40;;;;;;4986671;28;20026;-84
2022/01/04 10:35:26;;;;;;;5.88;4.32;;;9.90;83.40;;;;;;4987044;28;20034;-85
2022/01/04 10:37:53;;;;;;;6.68;5.00;;;9.80;83.30;;;;;;4989907;28;20037;-84
2022/01/04 10:40:19;;;;;;;6.35;4.45;;;9.80;83.50;;;;;;5004910;28;20034;-83
2022/01/04 10:42:45;;;;;;;7.43;4.60;;;9.80;83.60;;;;;;4991326;28;20023;-85
2022/01/04 10:45:29;;;;;;;4.32;3.30;;;9.80;83.60;;;;;;4984875;28;20033;-86
2022/01/04 10:48:03;;;;;;;5.68;4.38;;;9.80;83.60;;;;;;4989477;28;20604;-86
2022/01/04 10:50:34;;;;;;;7.00;4.97;;;9.90;83.50;;;;;;4986516;28;20049;-87
2022/01/04 10:53:01;;;;;;;6.90;4.55;;;9.90;83.40;;;;;;4985300;28;20026;-86
2022/01/04 10:55:36;;;;;;;5.88;4.45;;;9.90;83.30;;;;;;4984423;28;20038;-88
2022/01/04 10:58:04;;;;;;;6.03;4.10;;;9.90;83.30;;;;;;4995818;28;20010;-87
2022/01/04 11:00:30;;;;;;;8.65;5.97;;;10.00;83.40;;;;;;4993422;28;20022;-87
2022/01/04 11:02:58;;;;;;;7.82;5.45;;;10.00;83.40;;;;;;5003804;28;20092;-85
2022/01/04 11:05:24;;;;;;;8.10;5.38;;;10.00;83.50;;;;;;4991801;28;20080;-86
2022/01/04 11:08:03;;;;;;;7.55;4.90;;;10.00;83.50;;;;;;4988833;28;20041;-84
2022/01/04 11:10:32;;;;;;;7.85;5.97;;;10.00;83.50;;;;;;4992788;28;20076;-86
2022/01/04 11:12:59;;;;;;;10.02;7.03;;;10.00;83.50;;;;;;4987175;28;20037;-86
2022/01/04 11:15:25;;;;;;;11.05;7.90;;;10.10;83.60;;;;;;4990434;28;20034;-87
2022/01/04 11:17:51;;;;;;;10.63;7.95;;;10.00;83.60;;;;;;4986903;28;20053;-87
2022/01/04 11:20:17;;;;;;;11.85;8.60;;;10.10;83.70;;;;;;4977684;28;20026;-83
2022/01/04 11:22:48;;;;;;;11.43;8.20;;;10.10;83.70;;;;;;4982861;28;20029;-86
2022/01/04 11:25:16;;;;;;;13.75;8.85;;;10.10;84.40;;;;;;4983694;28;20058;-81
2022/01/04 11:27:42;;;;;;;9.77;7.10;;;10.00;83.80;;;;;;4990542;28;20030;-86
2022/01/04 11:30:38;;;;;;;9.82;7.65;;;10.10;83.90;;;;;;4997052;28;20089;-83
2022/01/04 11:33:17;;;;;;;11.25;7.60;;;10.10;83.90;;;;;;4977900;28;20559;-85
2022/01/04 11:35:45;;;;;;;8.63;6.47;;;10.10;83.90;;;;;;4989862;28;20073;-85
2022/01/04 11:38:11;;;;;;;9.52;7.40;;;10.20;83.80;;;;;;4987470;28;20500;-86
2022/01/04 11:40:41;;;;;;;12.35;9.07;;;10.20;83.80;;;;;;4986196;28;20023;-82
2022/01/04 11:43:26;;;;;;;9.25;7.13;;;10.10;83.90;;;;;;5011639;28;20454;-80
2022/01/04 11:45:52;;;;;;;11.52;8.45;;;10.10;84.10;;;;;;5001137;28;20085;-81
2022/01/04 11:48:26;;;;;;;13.13;8.93;;;10.20;84.20;;;;;;4990202;28;20038;-82
2022/01/04 11:50:56;;;;;;;9.98;7.53;;;10.10;84.30;;;;;;4988409;28;20041;-82
2022/01/04 11:53:22;;;;;;;9.85;7.50;;;10.10;84.50;;;;;;4994328;28;20500;-81
2022/01/04 11:55:57;;;;;;;9.80;6.78;;;10.10;84.60;;;;;;4995498;28;20072;-82
2022/01/04 11:58:25;;;;;;;8.48;6.22;;;10.20;84.60;;;;;;4989549;28;20122;-81
2022/01/04 12:01:02;;;;;;;8.73;6.50;;;10.10;84.50;;;;;;4991109;28;20420;-81
2022/01/04 12:03:42;;;;;;;7.40;5.20;;;10.20;84.50;;;;;;4994260;28;20050;-84
2022/01/04 12:06:09;;;;;;;6.70;5.07;;;10.20;84.40;;;;;;4988657;28;20410;-84
2022/01/04 12:08:37;;;;;;;8.45;5.85;;;10.20;84.40;;;;;;4984274;28;20554;-84
2022/01/04 12:11:17;;;;;;;7.65;6.00;;;10.20;84.50;;;;;;4999927;28;20030;-82
2022/01/04 12:13:49;;;;;;;7.95;5.88;;;10.20;84.50;;;;;;4990449;28;20085;-82
2022/01/04 12:16:28;;;;;;;6.53;5.23;;;10.30;84.50;;;;;;5004963;28;20666;-82
2022/01/04 12:18:57;;;;;;;10.40;6.95;;;10.30;84.40;;;;;;4994516;28;20805;-83
2022/01/04 12:21:26;;;;;;;7.90;5.88;;;10.30;84.40;;;;;;4995302;28;20105;-83
2022/01/04 12:23:53;;;;;;;7.75;5.93;;;10.30;84.40;;;;;;4985370;28;20027;-83
2022/01/04 12:26:19;;;;;;;8.73;6.53;;;10.30;84.40;;;;;;4995413;28;20021;-81
2022/01/04 12:28:54;;;;;;;10.27;6.85;;;10.20;84.50;;;;;;5006673;28;20052;-82
2022/01/04 12:31:20;;;;;;;8.48;5.88;;;10.20;84.70;;;;;;5004364;28;20049;-82
2022/01/04 12:33:48;;;;;;;8.40;5.22;;;10.10;84.70;;;;;;4988982;28;20030;-83
2022/01/04 12:36:41;;;;;;;6.57;4.75;;;10.20;84.80;;;;;;4990635;28;20315;-81
2022/01/04 12:39:14;;;;;;;;;;;10.20;84.70;;;;;;4992192;28;20041;-81
2022/01/04 12:41:41;;;;;;;5.40;2.35;;;10.00;84.40;;;;;;4984341;28;19921;-82
2022/01/04 12:44:09;;;;;;;4.30;1.85;;;9.90;84.40;;;;;;4983138;28;20449;-81
2022/01/04 12:46:38;;;;;;;3.67;1.58;;;9.80;84.30;;;;;;4989344;28;20030;-82
2022/01/04 12:49:12;;;;;;;1.23;1.10;;;9.70;84.30;;;;;;4987403;28;20371;-82
2022/01/04 12:51:47;;;;;;;1.42;1.00;;;9.70;84.20;;;;;;4994604;28;20049;-81
2022/01/04 12:54:17;;;;;;;2.65;1.58;;;9.70;84.10;;;;;;4992574;28;20531;-81